Flight Track Log - Related Links

Times and Time Zones

All times are in EDT time to prevent confusion due to time zone crossing. See the WJA1353 flight status page for this flight to view local times or setup timezone preferences in your user account.

Time Position Orientation Groundspeed Altitude Reporting Facility
EDT Latitude Longitude Course Direction KTS MPH feet Rate Location/Type
Fri 03:44:12 AM 36.0758 -115.1072 90° East 170 196 3,500  Level Los Angeles Center
Fri 03:45:15 AM 36.0758 -115.0364 90° East 209 241 5,100 1,968 Climbing Los Angeles Center
Fri 03:47:00 AM 36.1833 -114.5690 90° East  Level FlightAware Approximate
Fri 03:47:21 AM 36.0953 -114.8333 83° East 290 334 9,700  Level Salt Lake Center
Fri 03:48:00 AM 36.1833 -114.4165 90° East  Level FlightAware Approximate
Fri 03:48:17 AM 36.1086 -114.7497 79° East 299 344 11,000  Level Los Angeles Center
Fri 03:49:00 AM 36.1833 -114.2639 90° East  Level FlightAware Approximate
Fri 03:49:17 AM 36.1703 -114.6675 47° Northeast 328 377 13,600  Level Los Angeles Center
Fri 03:50:17 AM 36.2744 -114.5908 31° Northeast 357 411 16,900 2,975 Climbing Los Angeles Center
Fri 03:51:18 AM 36.3639 -114.5236 31° Northeast 371 427 19,600 2,628 Climbing Los Angeles Center
Fri 03:52:18 AM 36.4575 -114.4550 31° Northeast 384 442 22,200 2,231 Climbing Los Angeles Center
Fri 03:53:19 AM 36.5539 -114.3836 31° Northeast 397 457 24,100 1,823 Climbing Los Angeles Center
Fri 03:55:19 AM 36.7594 -114.2297 31° Northeast 431 496 27,700 1,657 Climbing Los Angeles Center
Fri 03:56:20 AM 36.8697 -114.1464 31° Northeast 453 521 29,100 1,355 Climbing Los Angeles Center
Fri 03:58:25 AM 37.1097 -113.9717 30° Northeast 486 559 31,900 1,459 Climbing Salt Lake Center
Fri 03:59:21 AM 37.2208 -113.8856 32° Northeast 493 567 33,500 1,707 Climbing Los Angeles Center
Fri 04:00:21 AM 37.3478 -113.7925 30° Northeast 499 574 35,200 1,258 Climbing Los Angeles Center
Fri 04:02:27 AM 37.5847 -113.6128 31° Northeast 495 570 37,400 1,065 Climbing Salt Lake Center
Fri 04:03:27 AM 37.7047 -113.5211 31° Northeast 498 573 38,500 800 Climbing Salt Lake Center
Fri 04:04:27 AM 37.8253 -113.4297 31° Northeast 499 574 39,000 248 Climbing Salt Lake Center
Fri 04:05:28 AM 37.9461 -113.3367 31° Northeast 500 575 39,000  Level Salt Lake Center
Fri 04:06:28 AM 38.0656 -113.2450 31° Northeast 500 575 39,000  Level Salt Lake Center
Fri 04:07:29 AM 38.1828 -113.1533 32° Northeast 497 572 39,000  Level Salt Lake Center
Fri 04:08:29 AM 38.3003 -113.0614 32° Northeast 496 571 39,000  Level Salt Lake Center
Fri 04:09:29 AM 38.4117 -112.9611 35° Northeast 492 566 39,000  Level Salt Lake Center
Fri 04:10:30 AM 38.5122 -112.8408 43° Northeast 491 565 39,000  Level Salt Lake Center
Fri 04:11:30 AM 38.6125 -112.7211 43° Northeast 492 566 39,000  Level Salt Lake Center
Fri 04:12:30 AM 38.7131 -112.6028 43° Northeast 492 566 39,000  Level Salt Lake Center
Fri 04:13:31 AM 38.8142 -112.4853 42° Northeast 491 565 39,000  Level Salt Lake Center
Fri 04:14:31 AM 38.9136 -112.3664 43° Northeast 491 565 39,000  Level Salt Lake Center
Fri 04:15:32 AM 39.0147 -112.2489 42° Northeast 491 565 39,000  Level Salt Lake Center
Fri 04:16:32 AM 39.1142 -112.1283 43° Northeast 491 565 39,000  Level Salt Lake Center
Fri 04:17:32 AM 39.2161 -112.0097 42° Northeast 491 565 39,000  Level Salt Lake Center
Fri 04:18:33 AM 39.3153 -111.8883 43° Northeast 491 565 39,000  Level Salt Lake Center
Fri 04:19:33 AM 39.4153 -111.7672 43° Northeast 494 568 39,000  Level Salt Lake Center
Fri 04:20:34 AM 39.5161 -111.6444 43° Northeast 498 573 39,000  Level Salt Lake Center
Fri 04:21:34 AM 39.6169 -111.5211 43° Northeast 498 573 39,000  Level Salt Lake Center
Fri 04:22:34 AM 39.7178 -111.3969 43° Northeast 500 575 39,000  Level Salt Lake Center
Fri 04:23:35 AM 39.8222 -111.2706 43° Northeast 502 578 39,000  Level Salt Lake Center
Fri 04:24:35 AM 39.9294 -111.1392 43° Northeast 502 578 39,000  Level Salt Lake Center
Fri 04:25:35 AM 40.0297 -111.0164 43° Northeast 500 575 39,000  Level Salt Lake Center
Fri 04:26:36 AM 40.1292 -110.8914 44° Northeast 499 574 39,000  Level Salt Lake Center
Fri 04:27:36 AM 40.2300 -110.7661 43° Northeast 499 574 39,000  Level Salt Lake Center
Fri 04:28:36 AM 40.3389 -110.6292 44° Northeast 499 574 39,000  Level Salt Lake Center
Fri 04:29:37 AM 40.4306 -110.5150 43° Northeast 499 574 39,000  Level Salt Lake Center
Fri 04:30:37 AM 40.5308 -110.3875 44° Northeast 499 574 39,000  Level Salt Lake Center
Fri 04:31:37 AM 40.6317 -110.2592 44° Northeast 499 574 39,000  Level Salt Lake Center
Fri 04:32:38 AM 40.7303 -110.1342 44° Northeast 498 573 39,000  Level Salt Lake Center
Fri 04:33:38 AM 40.8292 -110.0078 44° Northeast 498 573 39,000  Level Salt Lake Center
Fri 04:34:38 AM 40.9311 -109.8764 44° Northeast 497 572 39,000  Level Salt Lake Center
Fri 04:35:39 AM 41.0256 -109.7556 44° Northeast 495 570 39,000  Level Salt Lake Center
Fri 04:36:39 AM 41.1342 -109.6133 45° Northeast 493 567 39,000  Level Salt Lake Center
Fri 04:37:39 AM 41.2272 -109.4925 44° Northeast 492 566 39,000  Level Salt Lake Center
Fri 04:38:39 AM 41.3194 -109.3722 44° Northeast 490 564 39,000  Level Salt Lake Center
Fri 04:39:40 AM 41.4119 -109.2536 44° Northeast 486 559 39,000  Level Salt Lake Center
Fri 04:40:40 AM 41.5117 -109.1250 44° Northeast 493 567 39,000  Level Salt Lake Center
Fri 04:41:40 AM 41.6203 -108.9847 44° Northeast 486 559 39,000  Level Salt Lake Center
Fri 04:42:41 AM 41.7211 -108.8828 37° Northeast 473 544 39,000  Level Salt Lake Center
Fri 04:43:41 AM 41.8214 -108.7797 37° Northeast 474 545 39,000  Level Salt Lake Center
Fri 04:44:41 AM 41.9392 -108.6594 37° Northeast 475 547 39,000  Level Salt Lake Center
Fri 04:45:42 AM 42.0397 -108.5567 37° Northeast 475 547 39,000  Level Salt Lake Center
Fri 04:46:42 AM 42.1369 -108.4544 38° Northeast 468 539 39,000  Level Salt Lake Center
Fri 04:47:42 AM 42.2353 -108.3517 38° Northeast 465 535 39,000  Level Salt Lake Center
Fri 04:48:43 AM 42.3483 -108.2311 38° Northeast 467 537 39,000  Level Salt Lake Center
Fri 04:49:43 AM 42.4475 -108.1278 38° Northeast 467 537 39,000  Level Salt Lake Center
Fri 04:50:43 AM 42.5464 -108.0242 38° Northeast 469 540 39,000  Level Salt Lake Center
Fri 04:51:32 AM 42.6286 -107.9372 38° Northeast 469 540 39,000  Level Salt Lake Center
Fri 04:52:32 AM 42.7419 -107.8161 38° Northeast 468 539 39,000  Level Salt Lake Center
Fri 04:53:32 AM 42.8397 -107.7108 38° Northeast 467 537 39,000  Level Salt Lake Center
Fri 04:54:33 AM 42.9367 -107.6069 38° Northeast 467 537 39,000  Level Salt Lake Center
Fri 04:55:33 AM 43.0344 -107.5000 39° Northeast 464 534 39,000  Level Salt Lake Center
Fri 04:56:33 AM 43.1342 -107.3914 38° Northeast 462 532 39,000  Level Salt Lake Center
Fri 04:57:33 AM 43.2339 -107.2836 38° Northeast 460 529 39,000  Level Salt Lake Center
Fri 04:58:34 AM 43.3325 -107.1767 38° Northeast 458 527 39,000  Level Salt Lake Center
Fri 04:59:34 AM 43.4292 -107.0700 39° Northeast 452 520 39,000  Level Salt Lake Center
Fri 05:00:34 AM 43.5250 -106.9639 39° Northeast 448 516 39,000  Level Salt Lake Center
Fri 05:01:35 AM 43.6383 -106.8433 38° Northeast 447 514 39,000  Level Salt Lake Center
Fri 05:02:35 AM 43.7283 -106.7411 39° Northeast 444 511 39,000  Level Salt Lake Center
Fri 05:03:35 AM 43.8203 -106.6383 39° Northeast 439 505 39,000  Level Salt Lake Center
Fri 05:04:35 AM 43.9133 -106.5331 39° Northeast 443 510 39,000  Level Salt Lake Center
Fri 05:05:36 AM 44.0244 -106.4064 39° Northeast 449 517 39,000  Level Salt Lake Center
Fri 05:06:36 AM 44.1183 -106.2933 41° Northeast 449 517 39,000  Level Salt Lake Center
Fri 05:07:36 AM 44.2144 -106.1758 41° Northeast 455 524 39,000  Level Salt Lake Center
Fri 05:08:36 AM 44.3103 -106.0608 41° Northeast 451 519 39,000  Level Salt Lake Center
Fri 05:09:37 AM 44.4006 -105.9500 41° Northeast 451 519 39,000  Level Salt Lake Center
Fri 05:10:37 AM 44.4908 -105.8400 41° Northeast 451 519 39,000  Level Salt Lake Center
Fri 05:11:37 AM 44.5814 -105.7286 41° Northeast 451 519 39,000  Level Salt Lake Center
Fri 05:12:37 AM 44.6861 -105.5983 41° Northeast 451 519 39,000  Level Salt Lake Center
Fri 05:13:38 AM 44.7753 -105.4850 42° Northeast 451 519 39,000  Level Salt Lake Center
Fri 05:14:38 AM 44.8692 -105.3700 41° Northeast 451 519 39,000  Level Salt Lake Center
Fri 05:15:38 AM 44.9611 -105.2544 42° Northeast 449 517 39,000  Level Salt Lake Center
Fri 05:16:39 AM 45.0531 -105.1386 42° Northeast 447 514 39,000  Level Salt Lake Center
Fri 05:17:39 AM 45.1450 -105.0242 41° Northeast 447 514 39,000  Level Salt Lake Center
Fri 05:18:39 AM 45.2344 -104.9078 42° Northeast 441 507 39,000  Level Salt Lake Center
Fri 05:19:39 AM 45.3244 -104.7931 42° Northeast 440 506 39,000  Level Salt Lake Center
Fri 05:20:40 AM 45.4144 -104.6772 42° Northeast 440 506 39,000  Level Salt Lake Center
Fri 05:21:40 AM 45.5069 -104.5692 39° Northeast 437 503 39,000  Level Salt Lake Center
Fri 05:22:40 AM 45.6053 -104.4614 37° Northeast 431 496 39,000  Level Salt Lake Center
Fri 05:23:40 AM 45.6994 -104.3547 38° Northeast 431 496 39,000  Level Salt Lake Center
Fri 05:24:41 AM 45.7939 -104.2497 38° Northeast 431 496 39,000  Level Salt Lake Center
Fri 05:25:41 AM 45.8881 -104.1419 39° Northeast 431 496 39,000  Level Salt Lake Center
Fri 05:26:41 AM 45.9822 -104.0331 39° Northeast 432 497 39,000  Level Salt Lake Center
Fri 05:27:41 AM 46.0769 -103.9247 38° Northeast 433 498 39,000  Level Salt Lake Center
Fri 05:28:42 AM 46.1731 -103.8161 38° Northeast 436 502 39,000  Level Salt Lake Center
Fri 05:29:42 AM 46.2686 -103.7056 39° Northeast 438 504 39,000  Level Salt Lake Center
Fri 05:30:42 AM 46.3639 -103.5936 39° Northeast 439 505 39,000  Level Salt Lake Center
Fri 05:31:42 AM 46.4600 -103.4811 39° Northeast 441 507 39,000  Level Salt Lake Center
Fri 05:33:43 AM 46.6481 -103.2633 38° Northeast 441 507 39,000  Level Salt Lake Center
Fri 05:34:43 AM 46.7419 -103.1514 39° Northeast 440 506 39,000  Level Salt Lake Center
Fri 05:35:43 AM 46.8353 -103.0403 39° Northeast 439 505 39,000  Level Salt Lake Center
Fri 05:36:54 AM 46.9506 -102.9069 38° Northeast 438 504 39,000  Level Minneapolis Center
Fri 05:37:54 AM 47.0425 -102.7964 39° Northeast 438 504 39,000  Level Minneapolis Center
Fri 05:39:44 AM 47.2081 -102.5944 40° Northeast 437 503 39,000  Level Salt Lake Center
Fri 05:40:45 AM 47.3008 -102.4828 39° Northeast 437 503 39,000  Level Salt Lake Center
Fri 05:41:45 AM 47.3928 -102.3722 39° Northeast 436 502 39,000  Level Salt Lake Center
Fri 05:42:56 AM 47.5014 -102.2408 39° Northeast 429 494 39,000  Level Minneapolis Center
Fri 05:43:57 AM 47.5933 -102.1306 39° Northeast 429 494 39,000  Level Minneapolis Center
Fri 05:44:57 AM 47.6811 -102.0206 40° Northeast 423 487 39,000  Level Minneapolis Center
Fri 05:45:58 AM 47.7664 -101.9111 41° Northeast 415 478 39,000  Level Minneapolis Center
Fri 05:46:58 AM 47.8722 -101.7775 40° Northeast 415 478 39,000  Level Minneapolis Center
Fri 05:48:59 AM 48.0481 -101.5542 40° Northeast 416 479 39,000  Level Minneapolis Center
Fri 05:49:59 AM 48.1381 -101.4383 41° Northeast 422 486 39,000  Level Minneapolis Center
Fri 05:51:00 AM 48.2281 -101.3236 40° Northeast 423 487 39,000  Level Minneapolis Center
Fri 05:52:00 AM 48.3067 -101.1900 48° Northeast 431 496 39,000  Level Minneapolis Center
Fri 05:53:01 AM 48.3692 -101.0628 53° Northeast 433 498 39,000  Level Minneapolis Center
Fri 05:54:01 AM 48.4369 -100.9192 55° Northeast 428 493 39,000  Level Minneapolis Center
Fri 05:55:02 AM 48.5097 -100.7731 53° Northeast 430 495 39,000  Level Minneapolis Center
Fri 05:56:02 AM 48.5817 -100.6278 53° Northeast 430 495 39,000  Level Minneapolis Center
Fri 05:57:02 AM 48.6672 -100.4511 54° Northeast 431 496 39,000  Level Minneapolis Center
Fri 05:58:03 AM 48.7372 -100.3039 54° Northeast 431 496 39,000  Level Minneapolis Center
Fri 06:00:26 AM 48.8833 -99.9667 57° Northeast 430 495 39,000 -148 Level Winnipeg Center
Fri 06:01:26 AM 48.9500 -99.8000 59° Northeast 430 495 38,500 -1,585 Descending Winnipeg Center
Fri 06:03:05 AM 49.0842 -99.5731 48° Northeast 425 489 34,800 -2,040 Descending Minneapolis Center
Fri 06:06:26 AM 49.2667 -99.1167 63° Northeast 370 426 28,300 -1,885 Descending Winnipeg Center
Fri 06:07:26 AM 49.3333 -99.0000 49° Northeast 360 414 26,600 -1,700 Descending Winnipeg Center
Fri 06:08:26 AM 49.4000 -98.8667 52° Northeast 350 403 24,900 -1,700 Descending Winnipeg Center
Fri 06:09:26 AM 49.4500 -98.7333 60° Northeast 340 391 23,200 -1,650 Descending Winnipeg Center
Fri 06:10:26 AM 49.5000 -98.6333 52° Northeast 330 380 21,600 -1,650 Descending Winnipeg Center
Fri 06:11:26 AM 49.5500 -98.5167 57° Northeast 330 380 19,900 -1,650 Descending Winnipeg Center
Fri 06:12:26 AM 49.6000 -98.4167 52° Northeast 330 380 18,300 -1,600 Descending Winnipeg Center
Fri 06:13:26 AM 49.6500 -98.2833 60° Northeast 320 368 16,700 -1,600 Descending Winnipeg Center
Fri 06:14:26 AM 49.7000 -98.1833 52° Northeast 310 357 15,100 -1,700 Descending Winnipeg Center
Fri 06:15:26 AM 49.7333 -98.0833 63° Northeast 310 357 13,300 -1,800 Descending Winnipeg Center
Fri 06:16:26 AM 49.7833 -97.9500 60° Northeast 310 357 11,500 -1,550 Descending Winnipeg Center
Fri 06:17:26 AM 49.8500 -97.8500 44° Northeast 300 345 10,200 -1,250 Descending Winnipeg Center
Fri 06:18:26 AM 49.8833 -97.7500 63° Northeast 270 311 9,000 -1,250 Descending Winnipeg Center
Fri 06:19:26 AM 49.9167 -97.6333 66° East 260 299 7,700 -1,300 Descending Winnipeg Center
Fri 06:20:26 AM 49.9500 -97.5333 63° Northeast 260 299 6,400 -1,100 Descending Winnipeg Center
Fri 06:21:26 AM 50.0000 -97.4667 41° Northeast 250 288 5,500 -700 Descending Winnipeg Center
Fri 06:22:26 AM 50.0167 -97.3833 73° East 220 253 5,000 -750 Descending Winnipeg Center
Fri 06:23:26 AM 50.0333 -97.2833 75° East 200 230 4,000 -950 Descending Winnipeg Center
Fri 06:24:26 AM 50.0333 -97.2333 90° East 170 196 3,100 -850 Descending Winnipeg Center
Fri 06:25:26 AM 49.9833 -97.2000 157° South 160 184 2,300 -800 Descending Winnipeg Center
Fri 06:27:26 AM 49.9000 -97.2333 194° South 150 173 700 -800 Descending Winnipeg Center

Login

Don't have an account? Register now (free) for customized features, flight alerts, and more!